Commanda, Canada
Current Conditions -  °F | °C
As of 1:00 PM on Thursday 23 Oct 2014 (Local Time) from CYYB Reporting Station
Clear Clear  
Wind Chill: 52°   Ceiling: Unl
Heat Index: 52°   Visibility: 15mi
Dew Point: 34°   Wind: 3mph
Humidity: 50%   Direction: NA
Pressure: 30.16"   Gusts: NA
Location:  45.95°N, 79.6°W
Report Text: CYYB 231700Z VRB03KT 15SM SKC 11/01 A3016 RMK SLP221
Loading
Personal Weather Stations






























Interactive Weather Map
Tropical Storm Tracking
New forecast layout! Learn more

10-Day Weather Forecast

Advertisements
Track Severe Weather on mobile